Oslo Airport, Norway

6:57 AM CEST on April 25, 2015 (GMT +0200)
Gardermoen | | Change Station
CLOSE
Current Station
Airport
Location: Oslo Airport,
Elevation: 679 ft
Nearby Weather Stations

Elev 679 ft 60.21 °N, 11.08 °E | Updated 7 minutes ago

Mostly Cloudy
Mostly Cloudy
41 °F
Feels Like 37 °F
N
6
Wind Variable Wind from SE

Today
High -- | Low -- °F
--% Chance of Precip.
Yesterday
High -- | Low -- °F
Precip. -- in
5:30 AM 8:58 PM
Waxing Crescent, 42% visible
Pressure 29.50 in
Visibility 6.2 miles
Clouds Mostly Cloudy 700 ft
Windchill 37 °F
Dew Point 37 °F
Humidity 87%
Rainfall 0.00 in
Snow Depth Not available.
UV 0 out of 12
Pollen Not available.
Air Quality Not available.
Flu Activity Not available.
METAR ENGM 250450Z 14005KT 9999 BKN007 05/03 Q0999 TEMPO BKN004

More Conditions Fewer Conditions

Pressure 29.50 in
Visibility 6.2 miles
Clouds Mostly Cloudy 700 ft
Windchill 37 °F
Dew Point 37 °F
Humidity 87%
Rainfall 0.00 in
Snow Depth Not available.
UV 0 out of 12
Pollen Not available.
Air Quality Not available.
Flu Activity Not available.
METAR ENGM 250450Z 14005KT 9999 BKN007 05/03 Q0999 TEMPO BKN004

More Conditions Fewer Conditions

10-Day Weather Forecast

Almanac

Astronomy

Apr. 25, 2015 Rise Set
Actual Time
Civil Twilight
Nautical Twilight
Astronomical Twilight
Moon
Length of Visible Light
Length of Day
Tomorrow will be .
, % of the Moon is Illuminated

Today's Extremes

Country Highs Country Lows

Community

WunderPhotos

Upload Photos

1,816,605 photos uploaded!

WunderBlogs® & News

Nearby

Air Quality

  Air Quality AQ Index Pollutant
Not available.

Snow Depth

Station Depth Elevation

Earthquake Activity

City Distance Mag. Time & Date
Minimum magnitude displayed is 2.5.

Coastal Water Temperatures

Place Temperature

Stations

Nearby Weather Stations

Station Location Temp. Windchill Dew Point Humidity Wind Precip. Elev Updated Type